Golf Manor, Ohio
Current Conditions -  °F | °C
As of 10:53 PM on Thursday 20 Nov 2014 (Local Time) from KLUK Reporting Station
Clear Clear  
Wind Chill: 22°   Ceiling: Unl
Heat Index: 27°   Visibility: 10mi
Dew Point: 15°   Wind: 5mph
Humidity: 61%   Direction: NA
Pressure: 30.28"   Gusts: NA
Location:  39.1936°N, 84.4486°W
Report Text: KLUK 210353Z AUTO VRB04KT 10SM CLR M03/M09 A3028 RMK AO2 SLP259 T10281094
Loading
Personal Weather Stations






























Interactive Weather Map New forecast layout! Learn more

10-Day Weather Forecast

Advertisements
Track Severe Weather on mobile